createdAt,value
2019-03-05T00:01:17.407Z,3.20
2019-03-05T00:03:47.507Z,3.30
2019-03-05T00:06:18.642Z,3.20
2019-03-05T00:08:50.782Z,3.30
2019-03-05T00:11:22.859Z,3.20
2019-03-05T00:13:53.230Z,3.20
2019-03-05T00:16:28.410Z,3.10
2019-03-05T00:19:00.455Z,3.10
2019-03-05T00:21:30.547Z,3.00
2019-03-05T00:24:24.447Z,3.00
2019-03-05T00:26:56.836Z,3.00
2019-03-05T00:29:48.439Z,2.90
2019-03-05T00:32:28.334Z,2.90
2019-03-05T00:35:30.735Z,2.90
2019-03-05T00:38:18.111Z,2.90
2019-03-05T00:40:58.409Z,2.90
2019-03-05T00:44:04.434Z,2.90
2019-03-05T00:47:03.690Z,2.90
2019-03-05T00:50:14.629Z,2.90
2019-03-05T00:53:09.711Z,2.90
2019-03-05T00:55:49.906Z,2.90
2019-03-05T00:58:33.359Z,2.90
2019-03-05T01:01:27.530Z,2.90
2019-03-05T01:04:33.526Z,2.90
2019-03-05T01:07:03.827Z,2.90
2019-03-05T01:09:35.799Z,3.00
2019-03-05T01:12:06.947Z,3.00
2019-03-05T01:14:38.128Z,3.00
2019-03-05T01:17:08.210Z,3.00
2019-03-05T01:19:39.206Z,3.00
2019-03-05T01:22:09.415Z,3.00
2019-03-05T01:24:39.479Z,3.00
2019-03-05T01:27:09.599Z,3.10
2019-03-05T01:29:40.771Z,3.10
2019-03-05T01:32:23.666Z,3.10
2019-03-05T01:34:55.387Z,3.20
2019-03-05T01:37:27.439Z,3.20
2019-03-05T01:40:05.802Z,3.20
2019-03-05T01:42:35.919Z,3.20
2019-03-05T01:45:10.390Z,3.30
2019-03-05T01:47:40.474Z,3.30
2019-03-05T01:50:12.295Z,3.40
2019-03-05T01:52:42.400Z,3.40
2019-03-05T01:55:12.471Z,3.40
2019-03-05T01:57:42.569Z,3.50
2019-03-05T02:00:13.724Z,3.50
2019-03-05T02:02:43.794Z,3.50
2019-03-05T02:05:16.487Z,3.50
2019-03-05T02:07:46.706Z,3.60
2019-03-05T02:10:21.086Z,3.60
2019-03-05T02:12:52.004Z,3.60
2019-03-05T02:15:22.332Z,3.60
2019-03-05T02:17:53.394Z,3.60
2019-03-05T02:20:25.879Z,3.60
2019-03-05T02:23:03.911Z,3.60
2019-03-05T02:25:44.435Z,3.60
2019-03-05T02:28:31.098Z,3.70
2019-03-05T02:31:26.258Z,3.60
2019-03-05T02:34:03.666Z,3.60
2019-03-05T02:37:08.236Z,3.50
2019-03-05T02:40:09.806Z,3.50
2019-03-05T02:42:53.788Z,3.50
2019-03-05T02:45:49.397Z,3.40
2019-03-05T02:48:32.201Z,3.30
2019-03-05T02:51:09.716Z,3.20
2019-03-05T02:53:49.748Z,3.00
2019-03-05T02:56:42.192Z,2.90
2019-03-05T02:59:11.642Z,2.90
2019-03-05T03:01:48.822Z,2.80
2019-03-05T03:04:20.600Z,2.80
2019-03-05T03:06:50.659Z,2.80
2019-03-05T03:09:31.674Z,2.90
2019-03-05T03:12:02.686Z,2.90
2019-03-05T03:14:32.788Z,2.90
2019-03-05T03:17:02.871Z,2.80
2019-03-05T03:19:32.942Z,2.80
2019-03-05T03:22:03.038Z,2.70
2019-03-05T03:24:37.175Z,2.70
2019-03-05T03:27:09.264Z,2.60
2019-03-05T03:29:39.355Z,2.60
2019-03-05T03:32:10.404Z,2.60
2019-03-05T03:34:41.480Z,2.60
2019-03-05T03:37:11.578Z,2.60
2019-03-05T03:39:44.816Z,2.60
2019-03-05T03:42:14.896Z,2.50
2019-03-05T03:44:44.968Z,2.50
2019-03-05T03:47:16.015Z,2.50
2019-03-05T03:49:52.783Z,2.40
2019-03-05T03:52:22.867Z,2.40
2019-03-05T03:54:53.018Z,2.20
2019-03-05T03:57:24.075Z,2.10
2019-03-05T03:59:54.148Z,2.00
2019-03-05T04:02:24.224Z,2.00
2019-03-05T04:04:54.317Z,1.90
2019-03-05T04:07:24.407Z,1.90
2019-03-05T04:09:59.787Z,1.80
2019-03-05T04:12:32.072Z,1.80
2019-03-05T04:15:03.155Z,1.80
2019-03-05T04:17:40.675Z,1.80
2019-03-05T04:20:18.039Z,1.70
2019-03-05T04:22:48.156Z,1.70
2019-03-05T04:25:19.219Z,1.60
2019-03-05T04:27:49.303Z,1.60
2019-03-05T04:30:26.411Z,1.50
2019-03-05T04:32:58.478Z,1.40
2019-03-05T04:35:39.463Z,1.40
2019-03-05T04:38:09.536Z,1.40
2019-03-05T04:40:42.832Z,1.50
2019-03-05T04:43:14.031Z,1.50
2019-03-05T04:45:51.536Z,1.50
2019-03-05T04:48:32.087Z,1.50
2019-03-05T04:51:09.425Z,1.50
2019-03-05T04:53:41.415Z,1.50
2019-03-05T04:56:11.499Z,1.50
2019-03-05T04:58:42.757Z,1.50
2019-03-05T05:01:12.831Z,1.50
2019-03-05T05:03:42.911Z,1.50
2019-03-05T05:06:13.014Z,1.50
2019-03-05T05:08:50.018Z,1.50
2019-03-05T05:11:24.263Z,1.50
2019-03-05T05:13:56.202Z,1.50
2019-03-05T05:16:44.704Z,1.50
2019-03-05T05:19:16.690Z,1.50
2019-03-05T05:21:48.759Z,1.60
2019-03-05T05:24:34.791Z,1.70
2019-03-05T05:27:06.831Z,1.90
2019-03-05T05:29:37.863Z,2.00
2019-03-05T05:32:09.923Z,2.10
2019-03-05T05:34:41.167Z,2.20
2019-03-05T05:37:13.172Z,2.20
2019-03-05T05:40:31.030Z,2.30
2019-03-05T05:43:04.355Z,2.40
2019-03-05T05:45:46.163Z,2.40
2019-03-05T05:48:19.326Z,2.40
2019-03-05T05:50:57.363Z,2.40
2019-03-05T05:53:27.535Z,2.50
2019-03-05T05:55:57.623Z,2.50
2019-03-05T05:58:30.899Z,2.60
2019-03-05T06:01:03.610Z,2.60
2019-03-05T06:03:33.679Z,2.70
2019-03-05T06:06:03.778Z,2.70
2019-03-05T06:08:33.850Z,2.80
2019-03-05T06:11:04.980Z,2.90
2019-03-05T06:13:35.047Z,2.90
2019-03-05T06:16:05.118Z,3.00
2019-03-05T06:18:36.126Z,3.10
2019-03-05T06:21:12.287Z,3.10
2019-03-05T06:23:42.378Z,3.20
2019-03-05T06:26:25.743Z,3.30
2019-03-05T06:28:55.841Z,3.30
2019-03-05T06:31:30.538Z,3.40
2019-03-05T06:34:02.540Z,3.40
2019-03-05T06:36:54.691Z,3.50
2019-03-05T06:39:24.851Z,3.60
2019-03-05T06:41:56.986Z,3.60
2019-03-05T06:44:29.039Z,3.70
2019-03-05T06:46:59.175Z,3.80
2019-03-05T06:49:35.210Z,3.80
2019-03-05T06:52:05.928Z,3.90
2019-03-05T06:54:38.675Z,3.90
2019-03-05T06:57:08.762Z,4.00
2019-03-05T06:59:41.047Z,4.10
2019-03-05T07:02:11.119Z,4.10
2019-03-05T07:04:44.750Z,4.10
2019-03-05T07:07:17.470Z,4.20
2019-03-05T07:10:10.286Z,4.20
2019-03-05T07:12:54.007Z,4.20
2019-03-05T07:15:45.663Z,4.30
2019-03-05T07:18:20.344Z,4.30
2019-03-05T07:21:14.112Z,4.40
2019-03-05T07:24:25.064Z,4.40
2019-03-05T07:26:56.127Z,4.40
2019-03-05T07:29:28.187Z,4.50
2019-03-05T07:32:01.607Z,4.50
2019-03-05T07:34:33.334Z,4.50
2019-03-05T07:37:03.568Z,4.50
2019-03-05T07:39:33.639Z,4.60
2019-03-05T07:42:03.900Z,4.60
2019-03-05T07:44:34.895Z,4.60
2019-03-05T07:47:06.900Z,4.70
2019-03-05T07:49:44.004Z,4.80
2019-03-05T07:52:15.537Z,4.80
2019-03-05T07:54:46.191Z,4.70
2019-03-05T07:57:18.158Z,4.80
2019-03-05T07:59:51.339Z,4.90
2019-03-05T08:02:26.315Z,5.10
2019-03-05T08:05:03.822Z,5.20
2019-03-05T08:07:37.083Z,5.30
2019-03-05T08:10:18.376Z,5.30
2019-03-05T08:13:14.135Z,5.50
2019-03-05T08:16:02.646Z,5.50
2019-03-05T08:18:33.955Z,5.50
2019-03-05T08:21:04.497Z,5.50
2019-03-05T08:23:44.442Z,5.60
2019-03-05T08:26:14.870Z,5.80
2019-03-05T08:28:45.011Z,5.80
2019-03-05T08:31:15.171Z,5.70
2019-03-05T08:33:47.335Z,5.50
2019-03-05T08:36:19.419Z,5.40
2019-03-05T08:38:51.711Z,5.40
2019-03-05T08:41:35.114Z,5.50
2019-03-05T08:44:08.319Z,5.50
2019-03-05T08:46:44.319Z,5.40
2019-03-05T08:49:20.511Z,5.50
2019-03-05T08:51:51.019Z,5.60
2019-03-05T08:54:21.095Z,5.70
2019-03-05T08:57:02.184Z,5.80
2019-03-05T08:59:32.728Z,5.70
2019-03-05T09:02:03.007Z,5.80
2019-03-05T09:04:33.085Z,5.90
2019-03-05T09:07:03.743Z,5.80
2019-03-05T09:09:34.787Z,5.80
2019-03-05T09:12:06.856Z,5.80
2019-03-05T09:14:37.899Z,5.80
2019-03-05T09:17:10.048Z,5.80
2019-03-05T09:19:45.943Z,5.90
2019-03-05T09:22:17.080Z,6.00
2019-03-05T09:24:48.044Z,6.20
2019-03-05T09:27:19.046Z,6.10
2019-03-05T09:29:55.011Z,6.10
2019-03-05T09:32:25.079Z,6.10
2019-03-05T09:35:02.303Z,6.10
2019-03-05T09:37:32.379Z,6.00
2019-03-05T09:40:02.499Z,6.10
2019-03-05T09:42:40.128Z,6.10
2019-03-05T09:45:15.467Z,6.20
2019-03-05T09:47:46.536Z,6.30
2019-03-05T09:50:19.514Z,6.50
2019-03-05T09:52:59.847Z,6.60
2019-03-05T09:55:40.815Z,6.80
2019-03-05T09:58:12.075Z,7.10
2019-03-05T10:00:42.727Z,7.40
2019-03-05T10:03:19.784Z,7.50
2019-03-05T10:05:52.871Z,7.50
2019-03-05T10:08:31.936Z,7.80
2019-03-05T10:10:57.586Z,8.00
2019-03-05T10:13:27.674Z,8.20
2019-03-05T10:15:57.740Z,7.80
2019-03-05T10:18:30.853Z,7.80
2019-03-05T10:21:00.923Z,7.60
2019-03-05T10:23:32.932Z,7.70
2019-03-05T10:26:03.879Z,8.20
2019-03-05T10:28:35.219Z,8.20
2019-03-05T10:31:07.818Z,8.60
2019-03-05T10:33:38.879Z,8.40
2019-03-05T10:36:10.875Z,8.10
2019-03-05T10:38:42.223Z,8.20
2019-03-05T10:41:13.239Z,8.10
2019-03-05T10:43:43.323Z,8.80
2019-03-05T10:46:13.739Z,9.40
2019-03-05T10:48:51.643Z,10.40
2019-03-05T10:51:23.191Z,10.70
2019-03-05T10:53:53.267Z,10.10
2019-03-05T10:56:29.418Z,10.30
2019-03-05T10:58:59.428Z,9.70
2019-03-05T11:01:29.520Z,9.30
2019-03-05T11:04:00.244Z,9.10
2019-03-05T11:06:32.370Z,8.90
2019-03-05T11:09:02.456Z,8.50
2019-03-05T11:11:34.531Z,8.30
2019-03-05T11:14:04.835Z,7.90
2019-03-05T11:16:35.909Z,7.70
2019-03-05T11:19:07.911Z,7.80
2019-03-05T11:21:39.409Z,7.70
2019-03-05T11:24:12.599Z,7.60
2019-03-05T11:26:47.775Z,7.60
2019-03-05T11:29:17.943Z,7.60
2019-03-05T11:31:54.004Z,7.50
2019-03-05T11:34:30.115Z,7.50
2019-03-05T11:37:01.096Z,7.60
2019-03-05T11:39:32.151Z,7.70
2019-03-05T11:42:02.374Z,7.80
2019-03-05T11:44:32.624Z,7.90
2019-03-05T11:47:04.619Z,8.00
2019-03-05T11:49:37.228Z,8.00
2019-03-05T11:52:11.995Z,8.10
2019-03-05T11:54:47.903Z,8.10
2019-03-05T11:57:20.831Z,8.10
2019-03-05T11:59:56.695Z,8.10
2019-03-05T12:02:26.775Z,8.20
2019-03-05T12:04:58.247Z,8.10
2019-03-05T12:07:31.459Z,8.20
2019-03-05T12:10:01.555Z,8.20
2019-03-05T12:12:33.711Z,8.10
2019-03-05T12:15:10.275Z,8.10
2019-03-05T12:17:48.033Z,8.00
2019-03-05T12:20:18.183Z,8.10
2019-03-05T12:22:56.323Z,8.00
2019-03-05T12:25:45.947Z,7.90
2019-03-05T12:28:16.043Z,7.90
2019-03-05T12:30:46.130Z,7.80
2019-03-05T12:33:17.787Z,7.70
2019-03-05T12:35:49.851Z,7.60
2019-03-05T12:38:20.823Z,7.50
2019-03-05T12:40:50.903Z,7.40
2019-03-05T12:43:21.003Z,7.30
2019-03-05T12:45:53.583Z,7.40
2019-03-05T12:48:39.016Z,7.40
2019-03-05T12:50:59.519Z,7.40
2019-03-05T12:53:30.512Z,7.40
2019-03-05T12:56:02.152Z,7.40
2019-03-05T12:58:33.241Z,7.40
2019-03-05T13:01:03.751Z,7.30
2019-03-05T13:03:33.836Z,7.30
2019-03-05T13:06:07.536Z,7.40
2019-03-05T13:08:38.633Z,7.50
2019-03-05T13:11:09.302Z,7.40
2019-03-05T13:13:41.507Z,7.20
2019-03-05T13:16:23.736Z,7.10
2019-03-05T13:18:54.067Z,7.10
2019-03-05T13:21:24.144Z,7.00
2019-03-05T13:23:54.223Z,6.70
2019-03-05T13:26:30.259Z,6.30
2019-03-05T13:29:00.335Z,6.00
2019-03-05T13:31:31.291Z,5.90
2019-03-05T13:34:01.367Z,5.80
2019-03-05T13:36:31.445Z,5.80
2019-03-05T13:39:02.421Z,5.70
2019-03-05T13:41:38.295Z,5.60
2019-03-05T13:44:33.913Z,5.60
2019-03-05T13:47:05.911Z,5.40
2019-03-05T13:49:58.748Z,5.40
2019-03-05T13:52:48.759Z,5.30
2019-03-05T13:55:41.367Z,5.30
2019-03-05T13:58:40.015Z,5.20
2019-03-05T14:01:13.891Z,5.10
2019-03-05T14:03:48.615Z,5.00
2019-03-05T14:06:50.486Z,5.00
2019-03-05T14:09:19.593Z,5.00
2019-03-05T14:11:55.497Z,5.00
2019-03-05T14:14:27.569Z,5.00
2019-03-05T14:17:01.806Z,5.00
2019-03-05T14:19:32.894Z,4.90
2019-03-05T14:22:02.958Z,4.90
2019-03-05T14:24:40.517Z,4.80
2019-03-05T14:27:11.583Z,4.80
2019-03-05T14:29:41.676Z,4.80
2019-03-05T14:32:14.771Z,4.80
2019-03-05T14:35:00.484Z,4.70
2019-03-05T14:37:37.440Z,4.70
2019-03-05T14:40:24.497Z,4.60
2019-03-05T14:42:54.360Z,4.60
2019-03-05T14:45:30.167Z,4.60
2019-03-05T14:48:01.082Z,4.60
2019-03-05T14:50:40.534Z,4.50
2019-03-05T14:53:10.641Z,4.50
2019-03-05T14:55:40.785Z,4.50
2019-03-05T14:58:12.744Z,4.50
2019-03-05T15:00:51.797Z,4.40
2019-03-05T15:03:34.235Z,4.40
2019-03-05T15:06:04.327Z,4.30
2019-03-05T15:08:34.425Z,4.30
2019-03-05T15:11:04.609Z,4.30
2019-03-05T15:13:36.575Z,4.30
2019-03-05T15:16:17.447Z,4.30
2019-03-05T15:18:47.495Z,4.30
2019-03-05T15:21:21.171Z,4.30
2019-03-05T15:23:53.135Z,4.40
2019-03-05T15:26:23.326Z,4.40
2019-03-05T15:28:56.850Z,4.30
2019-03-05T15:31:26.995Z,4.40
2019-03-05T15:33:58.912Z,4.30
2019-03-05T15:36:37.996Z,4.30
2019-03-05T15:39:20.020Z,4.30
2019-03-05T15:41:52.134Z,4.30
2019-03-05T15:44:24.082Z,4.30
2019-03-05T15:47:00.152Z,4.30
2019-03-05T15:49:37.152Z,4.30
2019-03-05T15:52:10.461Z,4.20
2019-03-05T15:54:42.456Z,4.20
2019-03-05T15:57:12.595Z,4.20
2019-03-05T15:59:44.650Z,4.30
2019-03-05T16:02:21.655Z,4.20
2019-03-05T16:04:52.631Z,4.20
2019-03-05T16:07:25.831Z,4.30
2019-03-05T16:09:56.910Z,4.30
2019-03-05T16:12:28.943Z,4.30
2019-03-05T16:14:59.989Z,4.20
2019-03-05T16:17:32.503Z,4.30
2019-03-05T16:20:15.055Z,4.30
2019-03-05T16:22:47.147Z,4.30
2019-03-05T16:25:22.099Z,4.30
2019-03-05T16:27:55.211Z,4.30
2019-03-05T16:30:44.868Z,4.30
2019-03-05T16:33:23.768Z,4.20
2019-03-05T16:36:08.667Z,4.30
2019-03-05T16:38:41.952Z,4.20
2019-03-05T16:41:22.625Z,4.20
2019-03-05T16:44:07.173Z,4.20
2019-03-05T16:46:38.903Z,4.20
2019-03-05T16:49:16.545Z,4.20
2019-03-05T16:52:04.411Z,4.20
2019-03-05T16:54:41.649Z,4.20
2019-03-05T16:57:13.367Z,4.20
2019-03-05T16:59:57.036Z,4.20
2019-03-05T17:02:29.704Z,4.30
2019-03-05T17:05:10.362Z,4.30
2019-03-05T17:07:43.975Z,4.30
2019-03-05T17:10:32.795Z,4.30
2019-03-05T17:13:03.011Z,4.30
2019-03-05T17:15:35.137Z,4.30
2019-03-05T17:18:05.875Z,4.30
2019-03-05T17:20:35.979Z,4.40
2019-03-05T17:23:06.703Z,4.40
2019-03-05T17:25:38.731Z,4.40
2019-03-05T17:28:08.814Z,4.40
2019-03-05T17:30:39.867Z,4.40
2019-03-05T17:33:09.951Z,4.30
2019-03-05T17:35:42.039Z,4.30
2019-03-05T17:38:12.151Z,4.30
2019-03-05T17:40:47.896Z,4.30
2019-03-05T17:43:23.753Z,4.30
2019-03-05T17:45:53.837Z,4.30
2019-03-05T17:48:25.987Z,4.30
2019-03-05T17:51:08.363Z,4.30
2019-03-05T17:53:38.451Z,4.30
2019-03-05T17:56:08.535Z,4.30
2019-03-05T17:58:43.583Z,4.20
2019-03-05T18:01:23.515Z,4.20
2019-03-05T18:03:55.587Z,4.20
2019-03-05T18:06:26.893Z,4.20
2019-03-05T18:08:57.123Z,4.20
2019-03-05T18:11:33.715Z,4.10
2019-03-05T18:14:03.883Z,4.10
2019-03-05T18:16:33.988Z,4.10
2019-03-05T18:19:11.383Z,4.10
2019-03-05T18:21:49.550Z,4.10
2019-03-05T18:24:27.467Z,4.10
2019-03-05T18:26:58.603Z,4.00
2019-03-05T18:29:38.859Z,4.00
2019-03-05T18:32:17.783Z,3.90
2019-03-05T18:34:50.638Z,3.90
2019-03-05T18:37:23.751Z,3.80
2019-03-05T18:39:57.051Z,3.80
2019-03-05T18:42:30.207Z,3.80
2019-03-05T18:45:01.206Z,3.80
2019-03-05T18:47:33.775Z,3.70
2019-03-05T18:50:05.617Z,3.60
2019-03-05T18:52:46.832Z,3.40
2019-03-05T18:55:20.319Z,3.30
2019-03-05T18:57:50.675Z,3.10
2019-03-05T19:00:36.455Z,3.00
2019-03-05T19:03:21.658Z,2.80
2019-03-05T19:05:51.731Z,2.70
2019-03-05T19:08:22.739Z,2.60
2019-03-05T19:10:54.199Z,2.50
2019-03-05T19:13:24.348Z,2.40
2019-03-05T19:15:56.427Z,2.40
2019-03-05T19:18:29.008Z,2.30
2019-03-05T19:21:00.951Z,2.30
2019-03-05T19:23:31.060Z,2.20
2019-03-05T19:26:03.254Z,2.20
2019-03-05T19:28:35.211Z,2.30
2019-03-05T19:31:14.757Z,2.30
2019-03-05T19:33:47.671Z,2.30
2019-03-05T19:36:18.887Z,2.40
2019-03-05T19:38:50.985Z,2.50
2019-03-05T19:41:31.199Z,2.60
2019-03-05T19:44:06.111Z,2.80
2019-03-05T19:46:36.187Z,2.90
2019-03-05T19:49:15.507Z,3.00
2019-03-05T19:51:45.619Z,3.00
2019-03-05T19:54:21.515Z,3.00
2019-03-05T19:56:51.588Z,3.10
2019-03-05T19:59:22.569Z,3.00
2019-03-05T20:01:58.539Z,3.00
2019-03-05T20:04:34.599Z,3.00
2019-03-05T20:07:06.742Z,3.10
2019-03-05T20:09:37.047Z,3.10
2019-03-05T20:12:07.435Z,3.10
2019-03-05T20:14:40.204Z,3.10
2019-03-05T20:17:12.267Z,3.10
2019-03-05T20:19:42.340Z,3.00
2019-03-05T20:22:12.635Z,2.90
2019-03-05T20:24:42.707Z,2.80
2019-03-05T20:27:16.427Z,2.60
2019-03-05T20:29:47.488Z,2.50
2019-03-05T20:32:23.287Z,2.40
2019-03-05T20:34:55.364Z,2.30
2019-03-05T20:37:28.448Z,2.20
2019-03-05T20:39:58.531Z,2.10
2019-03-05T20:42:28.619Z,2.00
2019-03-05T20:44:58.711Z,1.90
2019-03-05T20:47:31.251Z,1.90
2019-03-05T20:50:19.055Z,1.80
2019-03-05T20:52:56.721Z,1.80
2019-03-05T20:55:28.236Z,1.70
2019-03-05T20:58:00.711Z,1.50
2019-03-05T21:00:39.715Z,1.50
2019-03-05T21:03:12.781Z,1.40
2019-03-05T21:05:50.565Z,1.50
2019-03-05T21:08:20.735Z,1.40
2019-03-05T21:10:52.368Z,1.40
2019-03-05T21:13:22.620Z,1.40
2019-03-05T21:15:53.655Z,1.40
2019-03-05T21:18:25.884Z,1.40
2019-03-05T21:20:56.871Z,1.40
2019-03-05T21:23:31.931Z,1.20
2019-03-05T21:26:02.019Z,1.20
2019-03-05T21:28:33.071Z,1.10
2019-03-05T21:31:03.173Z,1.10
2019-03-05T21:33:34.272Z,1.10
2019-03-05T21:36:10.083Z,1.10
2019-03-05T21:38:53.296Z,1.10
2019-03-05T21:41:24.361Z,1.00
2019-03-05T21:43:58.539Z,0.90
2019-03-05T21:46:28.651Z,0.90
2019-03-05T21:48:58.735Z,0.90
2019-03-05T21:51:30.775Z,1.00
2019-03-05T21:54:05.124Z,1.00
2019-03-05T21:56:35.227Z,1.00
2019-03-05T21:59:06.243Z,0.80
2019-03-05T22:01:36.505Z,0.80
2019-03-05T22:04:07.639Z,0.80
2019-03-05T22:06:45.005Z,0.90
2019-03-05T22:09:15.107Z,0.90
2019-03-05T22:11:45.383Z,0.80
2019-03-05T22:14:15.483Z,0.80
2019-03-05T22:16:46.021Z,0.80
2019-03-05T22:19:23.563Z,0.90
2019-03-05T22:21:53.839Z,0.90
2019-03-05T22:24:37.783Z,0.90
2019-03-05T22:27:08.931Z,0.90
2019-03-05T22:29:39.018Z,0.90
2019-03-05T22:32:09.140Z,0.90
2019-03-05T22:34:46.555Z,0.90
2019-03-05T22:37:16.676Z,0.80
2019-03-05T22:39:47.639Z,0.90
2019-03-05T22:42:29.070Z,0.90
2019-03-05T22:44:59.183Z,1.00
2019-03-05T22:47:49.738Z,1.00
2019-03-05T22:50:21.425Z,0.90
2019-03-05T22:52:53.270Z,0.80
2019-03-05T22:55:23.843Z,0.80
2019-03-05T22:57:56.904Z,0.80
2019-03-05T23:01:01.736Z,0.80
2019-03-05T23:03:33.907Z,0.80
2019-03-05T23:06:12.503Z,0.80
2019-03-05T23:08:44.635Z,0.80
2019-03-05T23:11:25.159Z,0.80
2019-03-05T23:13:55.463Z,0.80
2019-03-05T23:16:30.231Z,0.70
2019-03-05T23:19:03.964Z,0.70
2019-03-05T23:21:42.795Z,0.70
2019-03-05T23:24:25.086Z,0.80
2019-03-05T23:26:55.528Z,0.80
2019-03-05T23:29:33.492Z,0.80
2019-03-05T23:32:04.227Z,0.80
2019-03-05T23:34:42.568Z,0.90
2019-03-05T23:37:12.713Z,1.00
2019-03-05T23:39:44.031Z,1.00
2019-03-05T23:42:17.417Z,1.00
2019-03-05T23:44:47.529Z,0.90
2019-03-05T23:47:21.215Z,0.90
2019-03-05T23:49:57.196Z,1.00
2019-03-05T23:52:29.159Z,1.00
2019-03-05T23:55:01.245Z,1.00
2019-03-05T23:57:39.100Z,1.00
